createdAt,value
2018-12-30T00:00:30.076Z,43.30
2018-12-30T00:02:56.648Z,43.52
2018-12-30T00:05:23.368Z,38.15
2018-12-30T00:07:49.624Z,44.93
2018-12-30T00:10:16.305Z,45.78
2018-12-30T00:12:42.591Z,53.85
2018-12-30T00:15:09.158Z,53.60
2018-12-30T00:17:35.655Z,52.33
2018-12-30T00:20:02.104Z,44.70
2018-12-30T00:22:28.389Z,49.77
2018-12-30T00:24:54.763Z,50.50
2018-12-30T00:27:21.213Z,45.95
2018-12-30T00:29:47.525Z,48.85
2018-12-30T00:32:13.883Z,45.38
2018-12-30T00:34:40.245Z,54.63
2018-12-30T00:37:06.569Z,47.67
2018-12-30T00:39:32.888Z,44.33
2018-12-30T00:41:59.238Z,41.37
2018-12-30T00:44:25.553Z,44.27
2018-12-30T00:46:51.939Z,41.30
2018-12-30T00:49:18.252Z,36.30
2018-12-30T00:51:44.744Z,40.95
2018-12-30T00:54:11.123Z,43.35
2018-12-30T00:56:37.500Z,39.75
2018-12-30T00:59:03.761Z,48.58
2018-12-30T01:01:30.070Z,43.63
2018-12-30T01:03:56.440Z,44.48
2018-12-30T01:06:22.695Z,44.77
2018-12-30T01:08:49.394Z,39.50
2018-12-30T01:11:15.678Z,49.25
2018-12-30T01:13:41.962Z,45.20
2018-12-30T01:16:08.225Z,50.35
2018-12-30T01:18:34.603Z,43.10
2018-12-30T01:21:00.895Z,46.40
2018-12-30T01:23:27.160Z,33.85
2018-12-30T01:25:53.841Z,38.80
2018-12-30T01:28:20.198Z,40.08
2018-12-30T01:30:46.504Z,40.85
2018-12-30T01:33:12.801Z,38.25
2018-12-30T01:35:39.107Z,46.60
2018-12-30T01:38:05.403Z,37.67
2018-12-30T01:40:31.705Z,45.48
2018-12-30T01:42:58.016Z,40.65
2018-12-30T01:45:24.440Z,38.60
2018-12-30T01:47:50.697Z,71.80
2018-12-30T01:50:17.020Z,51.23
2018-12-30T01:52:43.315Z,37.70
2018-12-30T01:55:09.621Z,36.75
2018-12-30T01:57:36.212Z,41.37
2018-12-30T02:00:04.101Z,36.13
2018-12-30T02:02:30.364Z,48.63
2018-12-30T02:04:56.645Z,77.50
2018-12-30T02:07:22.929Z,136.65
2018-12-30T02:09:49.193Z,99.65
2018-12-30T02:12:15.597Z,39.60
2018-12-30T02:14:41.871Z,46.30
2018-12-30T02:17:08.168Z,36.15
2018-12-30T02:19:34.440Z,44.45
2018-12-30T02:22:00.804Z,36.23
2018-12-30T02:24:27.178Z,54.48
2018-12-30T02:26:53.460Z,48.30
2018-12-30T02:29:19.756Z,38.83
2018-12-30T02:31:46.108Z,41.90
2018-12-30T02:34:12.472Z,42.88
2018-12-30T02:36:38.764Z,38.55
2018-12-30T02:39:05.113Z,43.52
2018-12-30T02:41:31.515Z,40.67
2018-12-30T02:43:58.010Z,43.38
2018-12-30T02:46:24.244Z,37.28
2018-12-30T02:48:50.568Z,41.75
2018-12-30T02:51:16.953Z,36.23
2018-12-30T02:53:43.314Z,37.13
2018-12-30T02:56:09.608Z,38.40
2018-12-30T02:58:36.096Z,35.40
2018-12-30T03:01:02.344Z,34.55
2018-12-30T03:03:28.745Z,37.40
2018-12-30T03:05:55.004Z,31.80
2018-12-30T03:08:21.298Z,37.90
2018-12-30T03:10:47.714Z,31.50
2018-12-30T03:13:14.108Z,44.00
2018-12-30T03:15:40.357Z,37.35
2018-12-30T03:18:06.626Z,38.88
2018-12-30T03:20:33.018Z,36.85
2018-12-30T03:22:59.271Z,37.53
2018-12-30T03:25:25.653Z,32.70
2018-12-30T03:27:51.925Z,34.10
2018-12-30T03:30:18.283Z,32.33
2018-12-30T03:32:44.570Z,31.87
2018-12-30T03:35:10.952Z,36.60
2018-12-30T03:37:37.348Z,37.00
2018-12-30T03:40:06.224Z,34.65
2018-12-30T03:42:32.600Z,34.40
2018-12-30T03:44:58.985Z,32.98
2018-12-30T03:47:25.235Z,30.27
2018-12-30T03:49:51.542Z,36.65
2018-12-30T03:52:17.829Z,40.35
2018-12-30T03:54:44.113Z,40.25
2018-12-30T03:57:10.483Z,30.37
2018-12-30T03:59:36.768Z,34.50
2018-12-30T04:02:03.176Z,35.95
2018-12-30T04:04:29.540Z,36.35
2018-12-30T04:06:55.904Z,35.83
2018-12-30T04:09:22.185Z,30.62
2018-12-30T04:11:48.566Z,32.90
2018-12-30T04:14:15.056Z,35.25
2018-12-30T04:16:41.341Z,33.23
2018-12-30T04:19:07.597Z,34.60
2018-12-30T04:21:33.888Z,31.57
2018-12-30T04:24:00.249Z,32.63
2018-12-30T04:26:26.501Z,31.40
2018-12-30T04:28:52.793Z,31.20
2018-12-30T04:31:19.070Z,32.70
2018-12-30T04:33:45.473Z,32.10
2018-12-30T04:36:31.602Z,31.75
2018-12-30T04:38:57.886Z,34.83
2018-12-30T04:41:24.122Z,31.52
2018-12-30T04:43:50.403Z,30.32
2018-12-30T04:46:16.795Z,29.65
2018-12-30T04:48:43.053Z,32.93
2018-12-30T04:51:09.475Z,27.42
2018-12-30T04:53:35.752Z,25.05
2018-12-30T04:56:02.000Z,30.17
2018-12-30T04:58:28.282Z,35.98
2018-12-30T05:00:54.671Z,28.87
2018-12-30T05:03:20.907Z,31.68
2018-12-30T05:05:47.199Z,30.10
2018-12-30T05:08:13.571Z,28.50
2018-12-30T05:10:39.880Z,32.42
2018-12-30T05:13:06.362Z,29.87
2018-12-30T05:15:32.738Z,31.15
2018-12-30T05:17:58.985Z,33.42
2018-12-30T05:20:25.568Z,27.17
2018-12-30T05:22:51.960Z,27.52
2018-12-30T05:25:18.233Z,26.60
2018-12-30T05:27:44.631Z,26.15
2018-12-30T05:30:11.037Z,27.70
2018-12-30T05:32:37.282Z,29.90
2018-12-30T05:35:03.992Z,28.17
2018-12-30T05:37:30.369Z,28.87
2018-12-30T05:39:56.636Z,26.80
2018-12-30T05:42:22.934Z,27.00
2018-12-30T05:44:49.186Z,29.75
2018-12-30T05:47:15.471Z,31.20
2018-12-30T05:49:41.801Z,28.95
2018-12-30T05:52:08.073Z,30.05
2018-12-30T05:54:34.457Z,30.37
2018-12-30T05:57:00.744Z,28.87
2018-12-30T05:59:27.030Z,31.42
2018-12-30T06:01:53.418Z,25.77
2018-12-30T06:04:19.720Z,26.12
2018-12-30T06:06:46.085Z,32.83
2018-12-30T06:09:12.465Z,28.85
2018-12-30T06:11:38.851Z,35.17
2018-12-30T06:14:05.229Z,25.88
2018-12-30T06:16:31.526Z,30.50
2018-12-30T06:18:57.792Z,25.70
2018-12-30T06:21:24.069Z,20.70
2018-12-30T06:23:50.341Z,14.55
2018-12-30T06:26:16.628Z,13.22
2018-12-30T06:28:43.045Z,13.25
2018-12-30T06:31:09.333Z,10.53
2018-12-30T06:33:35.605Z,12.35
2018-12-30T06:36:01.907Z,10.53
2018-12-30T06:38:28.207Z,8.45
2018-12-30T06:40:54.476Z,12.30
2018-12-30T06:43:20.896Z,11.10
2018-12-30T06:45:47.169Z,13.70
2018-12-30T06:48:13.544Z,10.93
2018-12-30T06:50:39.977Z,9.53
2018-12-30T06:53:06.349Z,13.25
2018-12-30T06:55:32.700Z,21.12
2018-12-30T06:57:58.993Z,13.83
2018-12-30T07:00:25.490Z,10.43
2018-12-30T07:02:51.788Z,9.20
2018-12-30T07:05:18.089Z,11.95
2018-12-30T07:07:44.499Z,12.58
2018-12-30T07:10:10.755Z,10.72
2018-12-30T07:12:37.048Z,10.65
2018-12-30T07:15:04.525Z,14.65
2018-12-30T07:17:30.854Z,12.30
2018-12-30T07:19:57.254Z,11.63
2018-12-30T07:22:23.528Z,10.85
2018-12-30T07:24:49.828Z,13.45
2018-12-30T07:27:16.100Z,11.38
2018-12-30T07:29:42.418Z,15.30
2018-12-30T07:32:08.751Z,16.45
2018-12-30T07:34:35.045Z,14.98
2018-12-30T07:37:01.316Z,14.73
2018-12-30T07:39:27.629Z,15.75
2018-12-30T07:41:53.977Z,13.55
2018-12-30T07:44:20.438Z,15.35
2018-12-30T07:46:46.756Z,12.45
2018-12-30T07:49:13.076Z,14.58
2018-12-30T07:51:39.476Z,12.68
2018-12-30T07:54:05.794Z,14.98
2018-12-30T07:56:32.227Z,18.17
2018-12-30T07:58:58.522Z,19.90
2018-12-30T08:01:24.911Z,16.15
2018-12-30T08:03:51.297Z,16.73
2018-12-30T08:06:17.577Z,25.17
2018-12-30T08:08:43.941Z,23.07
2018-12-30T08:11:10.227Z,20.62
2018-12-30T08:13:36.494Z,24.07
2018-12-30T08:16:02.773Z,19.55
2018-12-30T08:18:29.132Z,17.48
2018-12-30T08:20:55.613Z,14.33
2018-12-30T08:23:23.761Z,19.07
2018-12-30T08:25:50.119Z,16.57
2018-12-30T08:28:16.501Z,19.00
2018-12-30T08:30:42.767Z,13.60
2018-12-30T08:33:09.102Z,24.35
2018-12-30T08:35:35.445Z,21.93
2018-12-30T08:38:01.788Z,19.48
2018-12-30T08:40:28.004Z,21.45
2018-12-30T08:42:54.397Z,17.02
2018-12-30T08:45:20.768Z,15.00
2018-12-30T08:47:47.071Z,19.85
2018-12-30T08:50:13.341Z,18.87
2018-12-30T08:52:39.631Z,14.87
2018-12-30T08:55:06.038Z,16.45
2018-12-30T08:57:32.403Z,17.50
2018-12-30T08:59:58.689Z,15.93
2018-12-30T09:02:24.962Z,12.93
2018-12-30T09:04:51.316Z,18.85
2018-12-30T09:07:17.708Z,21.62
2018-12-30T09:09:43.980Z,11.60
2018-12-30T09:12:10.232Z,13.85
2018-12-30T09:14:36.524Z,13.20
2018-12-30T09:17:03.010Z,13.48
2018-12-30T09:19:29.378Z,13.00
2018-12-30T09:21:55.730Z,11.95
2018-12-30T09:24:21.971Z,11.70
2018-12-30T09:26:48.272Z,13.43
2018-12-30T09:29:14.540Z,15.58
2018-12-30T09:31:40.949Z,12.28
2018-12-30T09:34:07.336Z,11.93
2018-12-30T09:36:33.589Z,10.68
2018-12-30T09:38:59.995Z,11.85
2018-12-30T09:41:26.376Z,9.03
2018-12-30T09:43:52.692Z,12.40
2018-12-30T09:46:19.068Z,9.93
2018-12-30T09:48:45.491Z,7.22
2018-12-30T09:51:11.777Z,10.72
2018-12-30T09:53:44.938Z,10.95
2018-12-30T09:56:06.323Z,11.43
2018-12-30T09:58:32.614Z,10.80
2018-12-30T10:00:58.969Z,8.68
2018-12-30T10:03:25.257Z,12.78
2018-12-30T10:05:51.731Z,9.95
2018-12-30T10:08:18.020Z,13.53
2018-12-30T10:10:44.329Z,10.60
2018-12-30T10:13:10.619Z,16.17
2018-12-30T10:15:37.021Z,18.55
2018-12-30T10:18:03.389Z,17.48
2018-12-30T10:20:30.906Z,24.85
2018-12-30T10:22:58.863Z,18.48
2018-12-30T10:25:25.285Z,10.05
2018-12-30T10:27:51.631Z,11.10
2018-12-30T10:30:17.894Z,7.45
2018-12-30T10:32:44.268Z,11.83
2018-12-30T10:35:10.582Z,12.95
2018-12-30T10:37:36.925Z,8.73
2018-12-30T10:40:03.301Z,9.98
2018-12-30T10:42:29.695Z,16.57
2018-12-30T10:44:56.124Z,13.15
2018-12-30T10:47:22.524Z,9.98
2018-12-30T10:49:48.793Z,6.78
2018-12-30T10:52:15.138Z,11.00
2018-12-30T10:54:41.391Z,16.20
2018-12-30T10:57:07.716Z,8.33
2018-12-30T10:59:34.107Z,14.23
2018-12-30T11:02:00.470Z,6.20
2018-12-30T11:04:26.865Z,6.90
2018-12-30T11:06:53.233Z,11.12
2018-12-30T11:09:19.615Z,4.62
2018-12-30T11:11:46.128Z,5.10
2018-12-30T11:14:12.375Z,6.75
2018-12-30T11:16:38.645Z,7.40
2018-12-30T11:19:04.920Z,12.98
2018-12-30T11:21:31.275Z,11.48
2018-12-30T11:23:58.623Z,9.25
2018-12-30T11:26:24.992Z,8.95
2018-12-30T11:28:51.412Z,8.38
2018-12-30T11:31:17.807Z,11.25
2018-12-30T11:33:44.095Z,11.48
2018-12-30T11:36:10.487Z,13.83
2018-12-30T11:38:36.867Z,15.55
2018-12-30T11:41:03.380Z,18.45
2018-12-30T11:43:29.773Z,7.70
2018-12-30T11:45:56.013Z,16.27
2018-12-30T11:48:22.436Z,27.62
2018-12-30T11:50:48.747Z,8.23
2018-12-30T11:53:15.028Z,17.65
2018-12-30T11:55:41.321Z,6.03
2018-12-30T11:58:07.597Z,11.97
2018-12-30T12:00:33.986Z,9.03
2018-12-30T12:03:00.343Z,10.60
2018-12-30T12:05:26.698Z,6.55
2018-12-30T12:07:53.089Z,9.25
2018-12-30T12:10:19.464Z,10.50
2018-12-30T12:12:48.994Z,5.75
2018-12-30T12:15:14.108Z,8.15
2018-12-30T12:17:40.327Z,7.17
2018-12-30T12:20:06.818Z,7.20
2018-12-30T12:22:33.370Z,10.18
2018-12-30T12:24:59.632Z,6.20
2018-12-30T12:27:25.940Z,8.48
2018-12-30T12:29:52.309Z,3.22
2018-12-30T12:32:18.641Z,3.42
2018-12-30T12:34:44.942Z,7.50
2018-12-30T12:37:11.428Z,4.33
2018-12-30T12:39:37.708Z,4.00
2018-12-30T12:42:04.033Z,6.12
2018-12-30T12:44:30.434Z,5.70
2018-12-30T12:46:56.803Z,7.28
2018-12-30T12:49:23.092Z,6.58
2018-12-30T12:51:49.388Z,9.08
2018-12-30T12:54:15.666Z,10.32
2018-12-30T12:56:41.950Z,14.45
2018-12-30T12:59:08.320Z,12.43
2018-12-30T13:01:34.688Z,3.90
2018-12-30T13:04:00.972Z,3.08
2018-12-30T13:06:27.387Z,3.37
2018-12-30T13:08:53.684Z,3.35
2018-12-30T13:11:19.986Z,3.95
2018-12-30T13:13:46.474Z,3.02
2018-12-30T13:16:12.839Z,2.25
2018-12-30T13:18:39.128Z,5.90
2018-12-30T13:21:05.488Z,6.33
2018-12-30T13:23:31.759Z,11.10
2018-12-30T13:25:58.102Z,5.47
2018-12-30T13:28:24.378Z,7.55
2018-12-30T13:30:50.708Z,7.92
2018-12-30T13:33:17.031Z,4.58
2018-12-30T13:35:43.744Z,3.90
2018-12-30T13:38:10.215Z,2.50
2018-12-30T13:40:36.613Z,5.45
2018-12-30T13:43:02.989Z,3.35
2018-12-30T13:45:29.243Z,5.62
2018-12-30T13:47:55.578Z,7.58
2018-12-30T13:50:21.844Z,6.65
2018-12-30T13:52:48.084Z,4.87
2018-12-30T13:55:14.430Z,8.63
2018-12-30T13:57:40.783Z,7.87
2018-12-30T14:00:08.384Z,8.43
2018-12-30T14:02:34.784Z,5.33
2018-12-30T14:05:01.184Z,7.85
2018-12-30T14:07:27.541Z,6.67
2018-12-30T14:09:53.945Z,9.50
2018-12-30T14:12:20.308Z,9.15
2018-12-30T14:14:46.696Z,8.90
2018-12-30T14:17:12.956Z,5.60
2018-12-30T14:19:39.234Z,7.45
2018-12-30T14:22:05.497Z,7.05
2018-12-30T14:24:31.787Z,8.70
2018-12-30T14:26:59.963Z,3.42
2018-12-30T14:29:26.176Z,8.38
2018-12-30T14:31:52.452Z,7.83
2018-12-30T14:34:18.838Z,10.55
2018-12-30T14:36:45.116Z,6.15
2018-12-30T14:39:11.388Z,12.93
2018-12-30T14:41:37.658Z,7.45
2018-12-30T14:44:04.052Z,5.60
2018-12-30T14:46:34.798Z,10.15
2018-12-30T14:48:58.400Z,6.15
2018-12-30T14:51:24.753Z,10.48
2018-12-30T14:53:51.005Z,7.87
2018-12-30T14:56:17.370Z,9.10
2018-12-30T14:58:43.773Z,11.10
2018-12-30T15:01:14.725Z,10.30
2018-12-30T15:03:38.234Z,9.03
2018-12-30T15:06:04.632Z,8.85
2018-12-30T15:08:30.926Z,12.75
2018-12-30T15:10:57.205Z,11.80
2018-12-30T15:13:23.617Z,11.20
2018-12-30T15:15:49.989Z,11.10
2018-12-30T15:18:16.281Z,8.25
2018-12-30T15:20:42.533Z,7.80
2018-12-30T15:23:08.804Z,7.87
2018-12-30T15:25:35.119Z,10.10
2018-12-30T15:28:01.384Z,8.05
2018-12-30T15:30:27.683Z,8.28
2018-12-30T15:32:54.164Z,13.25
2018-12-30T15:35:20.545Z,10.18
2018-12-30T15:37:46.941Z,7.37
2018-12-30T15:40:13.198Z,6.90
2018-12-30T15:42:39.513Z,7.53
2018-12-30T15:45:06.271Z,8.80
2018-12-30T15:47:32.585Z,6.75
2018-12-30T15:49:59.051Z,11.88
2018-12-30T15:52:25.368Z,6.97
2018-12-30T15:54:52.272Z,10.00
2018-12-30T15:57:18.628Z,6.83
2018-12-30T15:59:44.945Z,9.15
2018-12-30T16:02:11.328Z,11.63
2018-12-30T16:04:38.144Z,9.03
2018-12-30T16:07:04.480Z,11.35
2018-12-30T16:09:30.795Z,7.33
2018-12-30T16:11:57.120Z,8.35
2018-12-30T16:14:23.401Z,20.57
2018-12-30T16:16:51.556Z,7.12
2018-12-30T16:19:17.864Z,10.60
2018-12-30T16:21:44.230Z,10.80
2018-12-30T16:24:10.496Z,11.25
2018-12-30T16:26:36.788Z,14.58
2018-12-30T16:29:03.053Z,11.05
2018-12-30T16:31:29.488Z,15.23
2018-12-30T16:33:55.760Z,13.83
2018-12-30T16:36:22.050Z,8.73
2018-12-30T16:38:48.397Z,11.80
2018-12-30T16:41:14.653Z,12.80
2018-12-30T16:43:40.984Z,9.68
2018-12-30T16:46:07.246Z,8.68
2018-12-30T16:48:33.539Z,10.38
2018-12-30T16:50:59.820Z,11.88
2018-12-30T16:53:26.100Z,11.45
2018-12-30T16:55:52.368Z,14.95
2018-12-30T16:58:18.625Z,11.78
2018-12-30T17:00:44.900Z,9.78
2018-12-30T17:03:11.155Z,11.68
2018-12-30T17:05:37.534Z,13.25
2018-12-30T17:08:03.775Z,15.03
2018-12-30T17:10:30.055Z,12.65
2018-12-30T17:12:56.333Z,10.70
2018-12-30T17:15:22.602Z,13.22
2018-12-30T17:17:48.853Z,15.85
2018-12-30T17:20:15.132Z,12.93
2018-12-30T17:22:41.380Z,19.92
2018-12-30T17:25:07.671Z,10.88
2018-12-30T17:27:33.924Z,14.38
2018-12-30T17:30:02.137Z,12.40
2018-12-30T17:32:28.265Z,12.93
2018-12-30T17:34:54.537Z,10.60
2018-12-30T17:37:20.923Z,9.63
2018-12-30T17:39:47.202Z,18.98
2018-12-30T17:42:13.436Z,12.60
2018-12-30T17:44:39.740Z,16.85
2018-12-30T17:47:06.031Z,14.28
2018-12-30T17:49:32.336Z,17.02
2018-12-30T17:51:58.574Z,14.45
2018-12-30T17:54:24.836Z,13.72
2018-12-30T17:56:51.141Z,13.75
2018-12-30T17:59:17.384Z,19.02
2018-12-30T18:01:43.875Z,22.32
2018-12-30T18:04:10.128Z,15.32
2018-12-30T18:06:36.533Z,19.45
2018-12-30T18:09:04.523Z,13.90
2018-12-30T18:11:30.778Z,13.03
2018-12-30T18:13:57.167Z,12.23
2018-12-30T18:16:23.535Z,15.32
2018-12-30T18:18:49.804Z,16.82
2018-12-30T18:21:16.108Z,13.58
2018-12-30T18:23:42.405Z,12.90
2018-12-30T18:26:08.788Z,17.52
2018-12-30T18:28:35.606Z,13.48
2018-12-30T18:31:01.885Z,14.90
2018-12-30T18:33:28.496Z,24.60
2018-12-30T18:35:54.833Z,14.23
2018-12-30T18:38:21.439Z,17.57
2018-12-30T18:40:48.122Z,16.23
2018-12-30T18:43:14.546Z,14.85
2018-12-30T18:45:40.828Z,18.50
2018-12-30T18:48:07.344Z,16.90
2018-12-30T18:50:33.836Z,18.23
2018-12-30T18:53:00.583Z,18.27
2018-12-30T18:55:27.013Z,14.60
2018-12-30T18:57:53.405Z,20.30
2018-12-30T19:00:19.820Z,12.50
2018-12-30T19:02:46.127Z,19.00
2018-12-30T19:05:12.665Z,16.05
2018-12-30T19:07:39.096Z,14.23
2018-12-30T19:10:06.274Z,16.05
2018-12-30T19:12:32.629Z,16.52
2018-12-30T19:14:59.031Z,18.98
2018-12-30T19:17:25.497Z,14.00
2018-12-30T19:19:51.786Z,18.77
2018-12-30T19:22:18.331Z,17.00
2018-12-30T19:24:44.889Z,16.82
2018-12-30T19:27:11.567Z,15.98
2018-12-30T19:29:38.255Z,17.60
2018-12-30T19:32:04.641Z,21.42
2018-12-30T19:34:31.044Z,20.65
2018-12-30T19:36:57.462Z,18.67
2018-12-30T19:39:23.732Z,15.13
2018-12-30T19:41:50.494Z,21.52
2018-12-30T19:44:16.806Z,12.85
2018-12-30T19:46:43.256Z,18.12
2018-12-30T19:49:09.729Z,21.97
2018-12-30T19:51:36.365Z,16.07
2018-12-30T19:54:02.846Z,16.62
2018-12-30T19:56:29.937Z,16.32
2018-12-30T19:58:56.221Z,15.85
2018-12-30T20:01:22.779Z,17.27
2018-12-30T20:03:49.047Z,18.32
2018-12-30T20:06:15.535Z,24.37
2018-12-30T20:08:42.028Z,24.27
2018-12-30T20:11:08.544Z,24.77
2018-12-30T20:13:34.913Z,20.75
2018-12-30T20:16:01.201Z,19.80
2018-12-30T20:18:30.445Z,20.90
2018-12-30T20:20:58.843Z,18.55
2018-12-30T20:23:25.089Z,17.82
2018-12-30T20:25:52.632Z,18.07
2018-12-30T20:28:18.991Z,18.20
2018-12-30T20:30:45.396Z,15.18
2018-12-30T20:33:11.790Z,15.65
2018-12-30T20:35:38.084Z,14.70
2018-12-30T20:38:04.449Z,19.90
2018-12-30T20:40:30.764Z,16.57
2018-12-30T20:42:57.173Z,21.23
2018-12-30T20:45:23.560Z,19.95
2018-12-30T20:47:50.139Z,37.20
2018-12-30T20:50:16.525Z,24.63
2018-12-30T20:52:42.812Z,24.07
2018-12-30T20:55:09.332Z,29.20
2018-12-30T20:57:35.675Z,23.45
2018-12-30T21:00:03.145Z,24.60
2018-12-30T21:02:29.569Z,17.77
2018-12-30T21:04:55.927Z,15.68
2018-12-30T21:07:22.448Z,20.37
2018-12-30T21:09:48.817Z,33.63
2018-12-30T21:12:15.108Z,22.22
2018-12-30T21:14:41.352Z,16.00
2018-12-30T21:17:07.774Z,16.85
2018-12-30T21:19:34.035Z,16.55
2018-12-30T21:22:00.490Z,16.55
2018-12-30T21:24:26.982Z,19.25
2018-12-30T21:26:53.323Z,16.82
2018-12-30T21:29:19.608Z,17.17
2018-12-30T21:31:45.886Z,20.57
2018-12-30T21:34:12.189Z,22.05
2018-12-30T21:36:38.467Z,20.15
2018-12-30T21:39:05.951Z,20.85
2018-12-30T21:41:32.237Z,19.77
2018-12-30T21:43:58.547Z,19.15
2018-12-30T21:46:24.825Z,19.70
2018-12-30T21:48:51.118Z,20.75
2018-12-30T21:51:17.596Z,20.92
2018-12-30T21:53:44.013Z,25.35
2018-12-30T21:56:10.306Z,19.60
2018-12-30T21:58:36.688Z,17.98
2018-12-30T22:01:03.088Z,22.52
2018-12-30T22:03:29.354Z,23.12
2018-12-30T22:05:55.848Z,25.48
2018-12-30T22:08:22.215Z,26.95
2018-12-30T22:10:48.492Z,20.10
2018-12-30T22:13:14.808Z,26.68
2018-12-30T22:15:41.100Z,18.15
2018-12-30T22:18:07.368Z,18.73
2018-12-30T22:20:33.769Z,18.45
2018-12-30T22:23:00.152Z,21.27
2018-12-30T22:25:26.433Z,21.27
2018-12-30T22:27:52.938Z,19.90
2018-12-30T22:30:19.205Z,23.42
2018-12-30T22:32:45.493Z,24.00
2018-12-30T22:35:11.881Z,20.57
2018-12-30T22:37:38.252Z,22.55
2018-12-30T22:40:06.345Z,20.52
2018-12-30T22:42:33.202Z,19.50
2018-12-30T22:44:59.733Z,22.13
2018-12-30T22:47:26.079Z,24.80
2018-12-30T22:49:52.740Z,24.02
2018-12-30T22:52:18.984Z,23.55
2018-12-30T22:54:45.294Z,22.85
2018-12-30T22:57:11.548Z,27.48
2018-12-30T22:59:37.843Z,25.48
2018-12-30T23:02:04.326Z,19.87
2018-12-30T23:04:30.624Z,22.30
2018-12-30T23:06:57.036Z,24.43
2018-12-30T23:09:23.407Z,24.05
2018-12-30T23:11:49.757Z,22.62
2018-12-30T23:14:16.162Z,24.57
2018-12-30T23:16:42.461Z,23.60
2018-12-30T23:19:08.833Z,24.23
2018-12-30T23:21:35.247Z,21.60
2018-12-30T23:24:01.681Z,21.02
2018-12-30T23:26:28.017Z,22.27
2018-12-30T23:28:54.402Z,21.85
2018-12-30T23:31:20.701Z,19.50
2018-12-30T23:33:47.099Z,21.73
2018-12-30T23:36:13.385Z,19.60
2018-12-30T23:38:39.678Z,22.02
2018-12-30T23:41:06.047Z,24.72
2018-12-30T23:43:32.479Z,24.43
2018-12-30T23:45:58.848Z,19.73
2018-12-30T23:48:25.127Z,26.93
2018-12-30T23:50:51.405Z,23.92
2018-12-30T23:53:17.681Z,22.40
2018-12-30T23:55:44.097Z,22.90
2018-12-30T23:58:10.369Z,24.82
